Terminal Aerodrome Forecast
Issued by NWS Albany, NY

Home | Current Version | Previous Version | Text Only | Print | Product List | Glossary On
Versions: 1 2 3 4 5 6 7 8 9 10 11 12 13 14 15 16 17 18 19 20 21 22 23 24 25 26 27
000
FTUS41 KALY 170500
TAFGFL
TAF
KGFL 170520Z 1706/1806 VRB03KT 6SM BR FEW060
      TEMPO 1706/1710 1SM BR BKN005
     FM171000 00000KT 1/2SM FG VV002
     FM171300 VRB03KT 6SM BR FEW005 SCT050
     FM171500 19006KT P6SM FEW050
     FM172300 VRB03KT P6SM SCT150=

USA.gov is the U.S. government's official web portal to all federal, state and local government web resources and services.